San Diego/Montgomery Field, California
Current Conditions -  °F | °C
As of 4:53 AM on Tuesday 21 Oct 2014 (Local Time) from KMYF Reporting Station
Overcast Overcast  
Wind Chill: 67°   Ceiling: 1700
Heat Index: 67°   Visibility: 10mi
Dew Point: 60°   Wind: 6mph
Humidity: 79%   Direction: 100°E
Pressure: 29.9"   Gusts: NA
Location:  32.82°N, 117.13°W
Report Text: KMYF 211153Z AUTO 10005KT 10SM OVC017 19/16 A2990 RMK AO2 SLP121 T01940156 10200 20194 58003 TSNO
Loading
Personal Weather Stations






























Interactive Weather Map
Tropical Storm Tracking
New forecast layout! Learn more

10-Day Weather Forecast

Advertisements
Track Severe Weather on mobile